sensor_id;sensor_type;location;lat;lon;timestamp;temperature;humidity
48535;DHT22;34323;52.022;5.686;2022-09-01T00:02:23;21.40;92.90
48535;DHT22;34323;52.022;5.686;2022-09-01T00:04:52;21.50;92.80
48535;DHT22;34323;52.022;5.686;2022-09-01T00:07:29;21.60;92.90
48535;DHT22;34323;52.022;5.686;2022-09-01T00:09:56;21.50;92.80
48535;DHT22;34323;52.022;5.686;2022-09-01T00:12:22;21.40;93.00
48535;DHT22;34323;52.022;5.686;2022-09-01T00:14:50;21.30;93.20
48535;DHT22;34323;52.022;5.686;2022-09-01T00:17:16;21.20;93.20
48535;DHT22;34323;52.022;5.686;2022-09-01T00:19:42;21.30;93.20
48535;DHT22;34323;52.022;5.686;2022-09-01T00:22:09;21.40;93.00
48535;DHT22;34323;52.022;5.686;2022-09-01T00:24:35;21.40;93.00
48535;DHT22;34323;52.022;5.686;2022-09-01T00:27:01;21.30;93.10
48535;DHT22;34323;52.022;5.686;2022-09-01T00:29:27;21.30;92.90
48535;DHT22;34323;52.022;5.686;2022-09-01T00:31:53;21.40;93.20
48535;DHT22;34323;52.022;5.686;2022-09-01T00:34:19;21.40;93.10
48535;DHT22;34323;52.022;5.686;2022-09-01T00:36:45;21.40;93.10
48535;DHT22;34323;52.022;5.686;2022-09-01T00:39:13;21.40;93.10
48535;DHT22;34323;52.022;5.686;2022-09-01T00:41:39;21.20;93.30
48535;DHT22;34323;52.022;5.686;2022-09-01T00:44:09;21.20;93.30
48535;DHT22;34323;52.022;5.686;2022-09-01T00:46:40;21.10;93.50
48535;DHT22;34323;52.022;5.686;2022-09-01T00:49:31;21.10;93.40
48535;DHT22;34323;52.022;5.686;2022-09-01T00:52:02;21.10;93.50
48535;DHT22;34323;52.022;5.686;2022-09-01T00:54:32;21.30;93.40
48535;DHT22;34323;52.022;5.686;2022-09-01T00:56:59;21.10;93.50
48535;DHT22;34323;52.022;5.686;2022-09-01T00:59:26;21.20;93.40
48535;DHT22;34323;52.022;5.686;2022-09-01T01:01:52;21.20;93.40
48535;DHT22;34323;52.022;5.686;2022-09-01T01:04:19;21.10;93.40
48535;DHT22;34323;52.022;5.686;2022-09-01T01:06:52;20.90;93.50
48535;DHT22;34323;52.022;5.686;2022-09-01T01:09:25;20.90;93.60
48535;DHT22;34323;52.022;5.686;2022-09-01T01:11:52;21.00;93.60
48535;DHT22;34323;52.022;5.686;2022-09-01T01:14:18;20.90;93.60
48535;DHT22;34323;52.022;5.686;2022-09-01T01:16:48;21.00;93.60
48535;DHT22;34323;52.022;5.686;2022-09-01T01:22:13;21.00;93.70
48535;DHT22;34323;52.022;5.686;2022-09-01T01:24:59;20.80;93.80
48535;DHT22;34323;52.022;5.686;2022-09-01T01:27:34;20.80;93.80
48535;DHT22;34323;52.022;5.686;2022-09-01T01:30:03;20.70;93.90
48535;DHT22;34323;52.022;5.686;2022-09-01T01:32:32;20.70;94.10
48535;DHT22;34323;52.022;5.686;2022-09-01T01:34:58;20.70;94.00
48535;DHT22;34323;52.022;5.686;2022-09-01T01:37:28;20.60;94.10
48535;DHT22;34323;52.022;5.686;2022-09-01T01:39:54;20.60;94.10
48535;DHT22;34323;52.022;5.686;2022-09-01T01:42:20;20.60;94.10
48535;DHT22;34323;52.022;5.686;2022-09-01T01:44:48;20.50;94.20
48535;DHT22;34323;52.022;5.686;2022-09-01T01:47:14;20.40;94.40
48535;DHT22;34323;52.022;5.686;2022-09-01T01:49:43;20.40;94.50
48535;DHT22;34323;52.022;5.686;2022-09-01T01:52:10;20.20;94.70
48535;DHT22;34323;52.022;5.686;2022-09-01T01:54:41;20.20;95.10
48535;DHT22;34323;52.022;5.686;2022-09-01T01:57:07;20.20;95.00
48535;DHT22;34323;52.022;5.686;2022-09-01T01:59:33;20.20;94.90
48535;DHT22;34323;52.022;5.686;2022-09-01T02:02:00;20.40;94.70
48535;DHT22;34323;52.022;5.686;2022-09-01T02:04:29;20.50;94.60
48535;DHT22;34323;52.022;5.686;2022-09-01T02:06:58;20.40;94.70
48535;DHT22;34323;52.022;5.686;2022-09-01T02:09:24;20.30;95.00
48535;DHT22;34323;52.022;5.686;2022-09-01T02:11:51;20.30;94.80
48535;DHT22;34323;52.022;5.686;2022-09-01T02:14:22;20.60;94.60
48535;DHT22;34323;52.022;5.686;2022-09-01T02:16:48;20.50;94.70
48535;DHT22;34323;52.022;5.686;2022-09-01T02:19:15;20.70;94.60
48535;DHT22;34323;52.022;5.686;2022-09-01T02:21:45;20.70;94.50
48535;DHT22;34323;52.022;5.686;2022-09-01T02:24:14;20.80;94.30
48535;DHT22;34323;52.022;5.686;2022-09-01T02:26:42;20.90;94.30
48535;DHT22;34323;52.022;5.686;2022-09-01T02:29:15;20.90;94.30
48535;DHT22;34323;52.022;5.686;2022-09-01T02:31:48;21.10;93.90
48535;DHT22;34323;52.022;5.686;2022-09-01T02:34:15;21.10;93.90
48535;DHT22;34323;52.022;5.686;2022-09-01T02:36:48;21.00;94.00
48535;DHT22;34323;52.022;5.686;2022-09-01T02:39:15;21.00;94.10
48535;DHT22;34323;52.022;5.686;2022-09-01T02:41:43;20.90;94.00
48535;DHT22;34323;52.022;5.686;2022-09-01T02:44:09;21.00;94.10
48535;DHT22;34323;52.022;5.686;2022-09-01T02:46:43;21.00;93.90
48535;DHT22;34323;52.022;5.686;2022-09-01T02:49:11;20.90;94.10
48535;DHT22;34323;52.022;5.686;2022-09-01T02:51:41;20.70;94.20
48535;DHT22;34323;52.022;5.686;2022-09-01T02:54:09;20.90;94.00
48535;DHT22;34323;52.022;5.686;2022-09-01T02:56:35;20.80;93.90
48535;DHT22;34323;52.022;5.686;2022-09-01T02:59:02;21.00;93.80
48535;DHT22;34323;52.022;5.686;2022-09-01T03:01:30;21.00;93.80
48535;DHT22;34323;52.022;5.686;2022-09-01T03:04:02;21.00;93.90
48535;DHT22;34323;52.022;5.686;2022-09-01T03:06:30;20.90;93.90
48535;DHT22;34323;52.022;5.686;2022-09-01T03:08:59;20.90;93.90
48535;DHT22;34323;52.022;5.686;2022-09-01T03:11:27;21.00;93.60
48535;DHT22;34323;52.022;5.686;2022-09-01T03:13:53;21.10;93.50
48535;DHT22;34323;52.022;5.686;2022-09-01T03:16:20;21.10;93.60
48535;DHT22;34323;52.022;5.686;2022-09-01T03:18:47;21.00;93.60
48535;DHT22;34323;52.022;5.686;2022-09-01T03:21:14;20.90;93.60
48535;DHT22;34323;52.022;5.686;2022-09-01T03:23:43;20.80;93.80
48535;DHT22;34323;52.022;5.686;2022-09-01T03:26:10;20.70;93.70
48535;DHT22;34323;52.022;5.686;2022-09-01T03:28:37;20.70;94.00
48535;DHT22;34323;52.022;5.686;2022-09-01T03:31:03;20.70;93.80
48535;DHT22;34323;52.022;5.686;2022-09-01T03:33:29;20.70;93.80
48535;DHT22;34323;52.022;5.686;2022-09-01T03:35:56;20.60;94.00
48535;DHT22;34323;52.022;5.686;2022-09-01T03:38:23;20.40;94.00
48535;DHT22;34323;52.022;5.686;2022-09-01T03:40:54;20.40;94.00
48535;DHT22;34323;52.022;5.686;2022-09-01T03:43:24;20.30;94.20
48535;DHT22;34323;52.022;5.686;2022-09-01T03:45:56;20.50;94.20
48535;DHT22;34323;52.022;5.686;2022-09-01T03:48:26;20.60;93.80
48535;DHT22;34323;52.022;5.686;2022-09-01T03:50:54;20.60;93.80
48535;DHT22;34323;52.022;5.686;2022-09-01T03:53:22;20.50;94.20
48535;DHT22;34323;52.022;5.686;2022-09-01T03:55:49;20.40;93.90
48535;DHT22;34323;52.022;5.686;2022-09-01T03:58:17;20.40;94.00
48535;DHT22;34323;52.022;5.686;2022-09-01T04:00:49;20.30;93.90
48535;DHT22;34323;52.022;5.686;2022-09-01T04:03:16;20.30;94.00
48535;DHT22;34323;52.022;5.686;2022-09-01T04:05:47;20.20;94.00
48535;DHT22;34323;52.022;5.686;2022-09-01T04:08:14;20.30;94.10
48535;DHT22;34323;52.022;5.686;2022-09-01T04:10:47;20.10;94.10
48535;DHT22;34323;52.022;5.686;2022-09-01T04:13:17;19.90;94.40
48535;DHT22;34323;52.022;5.686;2022-09-01T04:15:43;19.70;94.60
48535;DHT22;34323;52.022;5.686;2022-09-01T04:18:10;19.60;94.70
48535;DHT22;34323;52.022;5.686;2022-09-01T04:20:46;19.80;94.70
48535;DHT22;34323;52.022;5.686;2022-09-01T04:23:32;19.60;94.90
48535;DHT22;34323;52.022;5.686;2022-09-01T04:26:03;19.30;95.30
48535;DHT22;34323;52.022;5.686;2022-09-01T04:28:35;19.10;95.60
48535;DHT22;34323;52.022;5.686;2022-09-01T04:31:06;19.10;95.60
48535;DHT22;34323;52.022;5.686;2022-09-01T04:33:36;19.20;95.70
48535;DHT22;34323;52.022;5.686;2022-09-01T04:36:05;19.10;95.70
48535;DHT22;34323;52.022;5.686;2022-09-01T04:38:31;19.10;95.90
48535;DHT22;34323;52.022;5.686;2022-09-01T04:41:03;19.30;95.70
48535;DHT22;34323;52.022;5.686;2022-09-01T04:43:34;19.50;95.40
48535;DHT22;34323;52.022;5.686;2022-09-01T04:46:00;19.60;95.10
48535;DHT22;34323;52.022;5.686;2022-09-01T04:48:27;19.60;95.00
48535;DHT22;34323;52.022;5.686;2022-09-01T04:50:53;19.60;94.80
48535;DHT22;34323;52.022;5.686;2022-09-01T04:53:21;19.80;94.60
48535;DHT22;34323;52.022;5.686;2022-09-01T04:55:47;19.90;94.50
48535;DHT22;34323;52.022;5.686;2022-09-01T04:58:16;19.60;94.60
48535;DHT22;34323;52.022;5.686;2022-09-01T05:00:48;19.60;94.80
48535;DHT22;34323;52.022;5.686;2022-09-01T05:03:16;19.50;94.80
48535;DHT22;34323;52.022;5.686;2022-09-01T05:05:45;19.60;94.80
48535;DHT22;34323;52.022;5.686;2022-09-01T05:08:14;19.50;94.80
48535;DHT22;34323;52.022;5.686;2022-09-01T05:10:46;19.50;94.60
48535;DHT22;34323;52.022;5.686;2022-09-01T05:13:15;19.30;95.00
48535;DHT22;34323;52.022;5.686;2022-09-01T05:15:43;19.20;95.20
48535;DHT22;34323;52.022;5.686;2022-09-01T05:18:17;19.30;95.10
48535;DHT22;34323;52.022;5.686;2022-09-01T05:20:50;19.40;95.00
48535;DHT22;34323;52.022;5.686;2022-09-01T05:23:17;19.50;94.80
48535;DHT22;34323;52.022;5.686;2022-09-01T05:25:50;19.50;94.70
48535;DHT22;34323;52.022;5.686;2022-09-01T05:28:20;19.30;95.00
48535;DHT22;34323;52.022;5.686;2022-09-01T05:30:50;19.20;95.20
48535;DHT22;34323;52.022;5.686;2022-09-01T05:33:19;19.30;95.00
48535;DHT22;34323;52.022;5.686;2022-09-01T05:35:57;19.30;95.00
48535;DHT22;34323;52.022;5.686;2022-09-01T05:38:26;19.30;95.00
48535;DHT22;34323;52.022;5.686;2022-09-01T05:41:03;19.30;95.00
48535;DHT22;34323;52.022;5.686;2022-09-01T05:43:33;19.40;95.10
48535;DHT22;34323;52.022;5.686;2022-09-01T05:46:00;19.40;95.00
48535;DHT22;34323;52.022;5.686;2022-09-01T05:48:29;19.40;94.90
48535;DHT22;34323;52.022;5.686;2022-09-01T05:51:00;19.60;94.70
48535;DHT22;34323;52.022;5.686;2022-09-01T05:53:26;19.60;94.80
48535;DHT22;34323;52.022;5.686;2022-09-01T05:55:53;19.60;94.70
48535;DHT22;34323;52.022;5.686;2022-09-01T05:58:23;19.40;94.80
48535;DHT22;34323;52.022;5.686;2022-09-01T06:00:51;19.40;94.90
48535;DHT22;34323;52.022;5.686;2022-09-01T06:03:21;19.30;95.00
48535;DHT22;34323;52.022;5.686;2022-09-01T06:05:49;19.40;95.10
48535;DHT22;34323;52.022;5.686;2022-09-01T06:08:24;19.50;95.00
48535;DHT22;34323;52.022;5.686;2022-09-01T06:10:53;19.30;95.00
48535;DHT22;34323;52.022;5.686;2022-09-01T06:13:19;19.50;95.00
48535;DHT22;34323;52.022;5.686;2022-09-01T06:15:49;19.40;95.10
48535;DHT22;34323;52.022;5.686;2022-09-01T06:18:18;19.50;95.00
48535;DHT22;34323;52.022;5.686;2022-09-01T06:20:46;19.40;95.10
48535;DHT22;34323;52.022;5.686;2022-09-01T06:23:13;19.40;95.00
48535;DHT22;34323;52.022;5.686;2022-09-01T06:25:44;19.40;95.30
48535;DHT22;34323;52.022;5.686;2022-09-01T06:28:13;19.40;95.20
48535;DHT22;34323;52.022;5.686;2022-09-01T06:30:39;19.30;95.40
48535;DHT22;34323;52.022;5.686;2022-09-01T06:33:07;19.40;95.50
48535;DHT22;34323;52.022;5.686;2022-09-01T06:35:39;19.40;95.60
48535;DHT22;34323;52.022;5.686;2022-09-01T06:38:07;19.60;95.50
48535;DHT22;34323;52.022;5.686;2022-09-01T06:40:35;19.40;95.60
48535;DHT22;34323;52.022;5.686;2022-09-01T06:43:06;19.30;96.10
48535;DHT22;34323;52.022;5.686;2022-09-01T06:45:45;19.40;95.90
48535;DHT22;34323;52.022;5.686;2022-09-01T06:48:18;19.40;95.90
48535;DHT22;34323;52.022;5.686;2022-09-01T06:50:46;19.50;95.80
48535;DHT22;34323;52.022;5.686;2022-09-01T06:53:12;19.40;95.90
48535;DHT22;34323;52.022;5.686;2022-09-01T06:55:46;19.40;95.90
48535;DHT22;34323;52.022;5.686;2022-09-01T06:58:13;19.40;96.00
48535;DHT22;34323;52.022;5.686;2022-09-01T07:00:41;19.20;95.90
48535;DHT22;34323;52.022;5.686;2022-09-01T07:03:09;19.30;96.10
48535;DHT22;34323;52.022;5.686;2022-09-01T07:05:40;19.20;96.10
48535;DHT22;34323;52.022;5.686;2022-09-01T07:08:08;19.20;96.20
48535;DHT22;34323;52.022;5.686;2022-09-01T07:10:43;19.40;96.30
48535;DHT22;34323;52.022;5.686;2022-09-01T07:13:12;19.50;96.10
48535;DHT22;34323;52.022;5.686;2022-09-01T07:15:43;19.60;95.90
48535;DHT22;34323;52.022;5.686;2022-09-01T07:18:09;19.60;95.90
48535;DHT22;34323;52.022;5.686;2022-09-01T07:20:40;19.40;95.90
48535;DHT22;34323;52.022;5.686;2022-09-01T07:23:07;19.60;95.60
48535;DHT22;34323;52.022;5.686;2022-09-01T07:25:44;19.80;95.40
48535;DHT22;34323;52.022;5.686;2022-09-01T07:28:11;20.00;95.10
48535;DHT22;34323;52.022;5.686;2022-09-01T07:30:47;19.90;95.00
48535;DHT22;34323;52.022;5.686;2022-09-01T07:33:16;19.80;95.50
48535;DHT22;34323;52.022;5.686;2022-09-01T07:35:46;19.80;95.20
48535;DHT22;34323;52.022;5.686;2022-09-01T07:38:12;20.10;95.20
48535;DHT22;34323;52.022;5.686;2022-09-01T07:40:40;20.10;94.60
48535;DHT22;34323;52.022;5.686;2022-09-01T07:43:13;20.00;94.90
48535;DHT22;34323;52.022;5.686;2022-09-01T07:45:43;20.10;94.70
48535;DHT22;34323;52.022;5.686;2022-09-01T07:48:12;20.40;94.20
48535;DHT22;34323;52.022;5.686;2022-09-01T07:50:41;20.60;94.60
48535;DHT22;34323;52.022;5.686;2022-09-01T07:53:15;20.70;94.00
48535;DHT22;34323;52.022;5.686;2022-09-01T07:55:43;20.80;93.80
48535;DHT22;34323;52.022;5.686;2022-09-01T07:58:10;20.90;94.20
48535;DHT22;34323;52.022;5.686;2022-09-01T08:00:37;21.20;93.50
48535;DHT22;34323;52.022;5.686;2022-09-01T08:03:03;21.20;93.80
48535;DHT22;34323;52.022;5.686;2022-09-01T08:05:28;21.30;93.90
48535;DHT22;34323;52.022;5.686;2022-09-01T08:07:55;21.40;93.60
48535;DHT22;34323;52.022;5.686;2022-09-01T08:10:21;21.50;93.60
48535;DHT22;34323;52.022;5.686;2022-09-01T08:12:47;21.70;93.60
48535;DHT22;34323;52.022;5.686;2022-09-01T08:15:13;21.70;93.60
48535;DHT22;34323;52.022;5.686;2022-09-01T08:17:41;21.60;93.30
48535;DHT22;34323;52.022;5.686;2022-09-01T08:20:08;21.60;93.30
48535;DHT22;34323;52.022;5.686;2022-09-01T08:22:35;21.60;93.40
48535;DHT22;34323;52.022;5.686;2022-09-01T08:25:05;21.70;92.90
48535;DHT22;34323;52.022;5.686;2022-09-01T08:27:32;21.60;92.20
48535;DHT22;34323;52.022;5.686;2022-09-01T08:30:04;22.00;92.20
48535;DHT22;34323;52.022;5.686;2022-09-01T08:32:32;22.00;92.00
48535;DHT22;34323;52.022;5.686;2022-09-01T08:34:58;22.10;92.20
48535;DHT22;34323;52.022;5.686;2022-09-01T08:37:24;22.20;91.50
48535;DHT22;34323;52.022;5.686;2022-09-01T08:39:50;22.40;91.30
48535;DHT22;34323;52.022;5.686;2022-09-01T08:45:05;22.90;91.20
48535;DHT22;34323;52.022;5.686;2022-09-01T08:47:32;23.10;91.10
48535;DHT22;34323;52.022;5.686;2022-09-01T08:49:58;23.00;91.40
48535;DHT22;34323;52.022;5.686;2022-09-01T08:57:39;23.30;90.50
48535;DHT22;34323;52.022;5.686;2022-09-01T09:00:07;23.50;90.20
48535;DHT22;34323;52.022;5.686;2022-09-01T09:05:05;23.70;90.50
48535;DHT22;34323;52.022;5.686;2022-09-01T09:16:02;24.40;88.70
48535;DHT22;34323;52.022;5.686;2022-09-01T09:18:45;24.70;88.80
48535;DHT22;34323;52.022;5.686;2022-09-01T09:21:45;24.90;88.00
48535;DHT22;34323;52.022;5.686;2022-09-01T09:27:25;25.40;86.70
48535;DHT22;34323;52.022;5.686;2022-09-01T09:32:51;25.90;84.70
48535;DHT22;34323;52.022;5.686;2022-09-01T09:38:14;26.30;84.00
48535;DHT22;34323;52.022;5.686;2022-09-01T09:41:06;26.30;83.90
48535;DHT22;34323;52.022;5.686;2022-09-01T09:43:37;26.60;84.30
48535;DHT22;34323;52.022;5.686;2022-09-01T09:46:22;26.70;83.50
48535;DHT22;34323;52.022;5.686;2022-09-01T09:49:12;26.70;81.40
48535;DHT22;34323;52.022;5.686;2022-09-01T09:51:42;27.00;81.20
48535;DHT22;34323;52.022;5.686;2022-09-01T09:56:41;27.60;81.70
48535;DHT22;34323;52.022;5.686;2022-09-01T09:59:31;27.40;80.80
48535;DHT22;34323;52.022;5.686;2022-09-01T10:02:11;27.50;81.00
48535;DHT22;34323;52.022;5.686;2022-09-01T10:04:41;27.40;78.90
48535;DHT22;34323;52.022;5.686;2022-09-01T10:09:53;27.70;79.30
48535;DHT22;34323;52.022;5.686;2022-09-01T10:12:21;28.00;78.80
48535;DHT22;34323;52.022;5.686;2022-09-01T10:14:52;28.10;77.90
48535;DHT22;34323;52.022;5.686;2022-09-01T10:17:34;28.50;78.40
48535;DHT22;34323;52.022;5.686;2022-09-01T10:20:06;28.70;80.10
48535;DHT22;34323;52.022;5.686;2022-09-01T10:22:36;29.10;79.10
48535;DHT22;34323;52.022;5.686;2022-09-01T10:25:05;29.20;78.90
48535;DHT22;34323;52.022;5.686;2022-09-01T10:27:35;29.00;76.60
48535;DHT22;34323;52.022;5.686;2022-09-01T10:30:13;29.50;76.30
48535;DHT22;34323;52.022;5.686;2022-09-01T10:32:53;29.70;77.00
48535;DHT22;34323;52.022;5.686;2022-09-01T10:35:26;29.70;76.10
48535;DHT22;34323;52.022;5.686;2022-09-01T10:37:53;29.60;77.90
48535;DHT22;34323;52.022;5.686;2022-09-01T10:42:54;30.20;75.70
48535;DHT22;34323;52.022;5.686;2022-09-01T10:45:34;30.20;77.20
48535;DHT22;34323;52.022;5.686;2022-09-01T10:50:51;30.00;74.80
48535;DHT22;34323;52.022;5.686;2022-09-01T11:07:02;30.60;74.20
48535;DHT22;34323;52.022;5.686;2022-09-01T11:09:44;30.90;75.60
48535;DHT22;34323;52.022;5.686;2022-09-01T11:14:57;31.30;73.40
48535;DHT22;34323;52.022;5.686;2022-09-01T11:17:24;31.10;73.50
48535;DHT22;34323;52.022;5.686;2022-09-01T11:20:03;31.40;74.00
48535;DHT22;34323;52.022;5.686;2022-09-01T11:23:04;31.60;74.00
48535;DHT22;34323;52.022;5.686;2022-09-01T11:36:32;31.40;74.50
48535;DHT22;34323;52.022;5.686;2022-09-01T11:44:30;31.40;73.30
48535;DHT22;34323;52.022;5.686;2022-09-01T11:47:03;31.20;71.80
48535;DHT22;34323;52.022;5.686;2022-09-01T11:49:32;31.10;73.70
48535;DHT22;34323;52.022;5.686;2022-09-01T11:51:59;31.20;73.00
48535;DHT22;34323;52.022;5.686;2022-09-01T11:54:28;31.20;73.10
48535;DHT22;34323;52.022;5.686;2022-09-01T11:56:54;31.40;73.30
48535;DHT22;34323;52.022;5.686;2022-09-01T11:59:31;31.70;73.10
48535;DHT22;34323;52.022;5.686;2022-09-01T12:01:57;31.90;73.00
48535;DHT22;34323;52.022;5.686;2022-09-01T12:04:29;32.00;73.40
48535;DHT22;34323;52.022;5.686;2022-09-01T12:07:02;32.20;73.50
48535;DHT22;34323;52.022;5.686;2022-09-01T12:09:44;32.60;73.90
48535;DHT22;34323;52.022;5.686;2022-09-01T12:14:59;32.50;72.80
48535;DHT22;34323;52.022;5.686;2022-09-01T12:17:25;32.50;73.00
48535;DHT22;34323;52.022;5.686;2022-09-01T12:19:51;32.70;73.90
48535;DHT22;34323;52.022;5.686;2022-09-01T12:22:20;32.60;73.40
48535;DHT22;34323;52.022;5.686;2022-09-01T12:24:53;32.70;72.60
48535;DHT22;34323;52.022;5.686;2022-09-01T12:27:20;32.70;71.90
48535;DHT22;34323;52.022;5.686;2022-09-01T12:29:49;32.90;72.10
48535;DHT22;34323;52.022;5.686;2022-09-01T12:32:16;32.40;73.00
48535;DHT22;34323;52.022;5.686;2022-09-01T12:34:45;32.30;70.10
48535;DHT22;34323;52.022;5.686;2022-09-01T12:39:43;32.50;71.70
48535;DHT22;34323;52.022;5.686;2022-09-01T12:42:25;32.70;71.60
48535;DHT22;34323;52.022;5.686;2022-09-01T12:45:08;32.90;71.60
48535;DHT22;34323;52.022;5.686;2022-09-01T12:52:59;33.20;70.70
48535;DHT22;34323;52.022;5.686;2022-09-01T12:55:29;33.20;71.60
48535;DHT22;34323;52.022;5.686;2022-09-01T12:58:00;33.60;71.70
48535;DHT22;34323;52.022;5.686;2022-09-01T13:01:22;33.90;71.50
48535;DHT22;34323;52.022;5.686;2022-09-01T13:03:16;33.90;70.80
48535;DHT22;34323;52.022;5.686;2022-09-01T13:05:49;34.00;71.20
48535;DHT22;34323;52.022;5.686;2022-09-01T13:08:18;34.10;70.70
48535;DHT22;34323;52.022;5.686;2022-09-01T13:10:51;33.80;71.20
48535;DHT22;34323;52.022;5.686;2022-09-01T13:13:18;33.80;68.90
48535;DHT22;34323;52.022;5.686;2022-09-01T13:15:47;34.00;69.60
48535;DHT22;34323;52.022;5.686;2022-09-01T13:18:14;34.50;71.00
48535;DHT22;34323;52.022;5.686;2022-09-01T13:20:40;35.10;71.30
48535;DHT22;34323;52.022;5.686;2022-09-01T13:23:09;35.60;70.30
48535;DHT22;34323;52.022;5.686;2022-09-01T13:25:37;36.20;70.60
48535;DHT22;34323;52.022;5.686;2022-09-01T13:28:05;36.50;70.40
48535;DHT22;34323;52.022;5.686;2022-09-01T13:30:32;37.50;70.80
48535;DHT22;34323;52.022;5.686;2022-09-01T13:32:59;38.30;68.70
48535;DHT22;34323;52.022;5.686;2022-09-01T13:35:25;39.10;68.20
48535;DHT22;34323;52.022;5.686;2022-09-01T13:37:51;40.10;67.20
48535;DHT22;34323;52.022;5.686;2022-09-01T13:40:19;41.20;67.10
48535;DHT22;34323;52.022;5.686;2022-09-01T13:42:50;42.80;66.70
48535;DHT22;34323;52.022;5.686;2022-09-01T13:45:19;43.30;64.10
48535;DHT22;34323;52.022;5.686;2022-09-01T13:47:47;44.00;64.20
48535;DHT22;34323;52.022;5.686;2022-09-01T13:50:15;44.30;64.40
48535;DHT22;34323;52.022;5.686;2022-09-01T13:52:47;44.80;62.90
48535;DHT22;34323;52.022;5.686;2022-09-01T13:55:16;44.30;63.50
48535;DHT22;34323;52.022;5.686;2022-09-01T13:57:42;43.50;61.70
48535;DHT22;34323;52.022;5.686;2022-09-01T14:00:11;43.00;63.60
48535;DHT22;34323;52.022;5.686;2022-09-01T14:02:46;42.70;63.80
48535;DHT22;34323;52.022;5.686;2022-09-01T14:05:18;43.00;63.50
48535;DHT22;34323;52.022;5.686;2022-09-01T14:07:46;43.80;63.40
48535;DHT22;34323;52.022;5.686;2022-09-01T14:10:14;44.10;63.00
48535;DHT22;34323;52.022;5.686;2022-09-01T14:12:40;44.50;61.50
48535;DHT22;34323;52.022;5.686;2022-09-01T14:15:08;44.50;61.80
48535;DHT22;34323;52.022;5.686;2022-09-01T14:17:35;44.40;61.30
48535;DHT22;34323;52.022;5.686;2022-09-01T14:20:03;44.20;61.00
48535;DHT22;34323;52.022;5.686;2022-09-01T14:22:29;44.10;61.40
48535;DHT22;34323;52.022;5.686;2022-09-01T14:24:55;43.90;61.40
48535;DHT22;34323;52.022;5.686;2022-09-01T14:27:20;42.90;61.30
48535;DHT22;34323;52.022;5.686;2022-09-01T14:29:50;41.00;61.60
48535;DHT22;34323;52.022;5.686;2022-09-01T14:32:18;40.90;64.00
48535;DHT22;34323;52.022;5.686;2022-09-01T14:34:47;41.80;64.00
48535;DHT22;34323;52.022;5.686;2022-09-01T14:37:14;42.80;62.40
48535;DHT22;34323;52.022;5.686;2022-09-01T14:39:40;43.90;61.80
48535;DHT22;34323;52.022;5.686;2022-09-01T14:42:06;45.00;62.00
48535;DHT22;34323;52.022;5.686;2022-09-01T14:44:35;45.20;61.40
48535;DHT22;34323;52.022;5.686;2022-09-01T14:47:03;44.80;60.70
48535;DHT22;34323;52.022;5.686;2022-09-01T14:49:31;44.70;60.50
48535;DHT22;34323;52.022;5.686;2022-09-01T14:52:05;44.00;60.10
48535;DHT22;34323;52.022;5.686;2022-09-01T14:54:36;43.60;60.40
48535;DHT22;34323;52.022;5.686;2022-09-01T14:57:02;42.50;60.20
48535;DHT22;34323;52.022;5.686;2022-09-01T14:59:28;42.60;61.00
48535;DHT22;34323;52.022;5.686;2022-09-01T15:01:54;42.60;62.00
48535;DHT22;34323;52.022;5.686;2022-09-01T15:04:20;42.60;62.50
48535;DHT22;34323;52.022;5.686;2022-09-01T15:06:46;42.60;61.90
48535;DHT22;34323;52.022;5.686;2022-09-01T15:09:12;43.00;61.00
48535;DHT22;34323;52.022;5.686;2022-09-01T15:11:40;42.40;61.20
48535;DHT22;34323;52.022;5.686;2022-09-01T15:14:06;41.80;61.20
48535;DHT22;34323;52.022;5.686;2022-09-01T15:16:35;42.20;60.60
48535;DHT22;34323;52.022;5.686;2022-09-01T15:19:09;42.90;60.90
48535;DHT22;34323;52.022;5.686;2022-09-01T15:21:41;43.00;61.30
48535;DHT22;34323;52.022;5.686;2022-09-01T15:24:08;43.50;60.20
48535;DHT22;34323;52.022;5.686;2022-09-01T15:26:35;43.90;59.80
48535;DHT22;34323;52.022;5.686;2022-09-01T15:29:01;43.80;60.40
48535;DHT22;34323;52.022;5.686;2022-09-01T15:31:28;43.20;60.20
48535;DHT22;34323;52.022;5.686;2022-09-01T15:33:58;43.00;60.20
48535;DHT22;34323;52.022;5.686;2022-09-01T15:36:26;42.80;60.20
48535;DHT22;34323;52.022;5.686;2022-09-01T15:38:53;42.50;61.00
48535;DHT22;34323;52.022;5.686;2022-09-01T15:41:25;41.50;60.90
48535;DHT22;34323;52.022;5.686;2022-09-01T15:43:51;40.40;61.40
48535;DHT22;34323;52.022;5.686;2022-09-01T15:46:17;39.90;61.20
48535;DHT22;34323;52.022;5.686;2022-09-01T15:48:43;39.40;62.00
48535;DHT22;34323;52.022;5.686;2022-09-01T15:53:46;37.70;62.30
48535;DHT22;34323;52.022;5.686;2022-09-01T15:56:12;36.80;62.80
48535;DHT22;34323;52.022;5.686;2022-09-01T15:58:38;36.80;63.70
48535;DHT22;34323;52.022;5.686;2022-09-01T16:01:03;37.00;63.50
48535;DHT22;34323;52.022;5.686;2022-09-01T16:03:29;36.80;64.70
48535;DHT22;34323;52.022;5.686;2022-09-01T16:05:59;36.70;64.30
48535;DHT22;34323;52.022;5.686;2022-09-01T16:08:24;36.80;63.70
48535;DHT22;34323;52.022;5.686;2022-09-01T16:10:50;36.60;63.80
48535;DHT22;34323;52.022;5.686;2022-09-01T16:13:16;36.30;64.50
48535;DHT22;34323;52.022;5.686;2022-09-01T16:15:47;36.20;63.90
48535;DHT22;34323;52.022;5.686;2022-09-01T16:18:36;35.80;65.20
48535;DHT22;34323;52.022;5.686;2022-09-01T16:21:23;35.60;64.70
48535;DHT22;34323;52.022;5.686;2022-09-01T16:23:51;35.30;64.90
48535;DHT22;34323;52.022;5.686;2022-09-01T16:26:21;35.20;65.00
48535;DHT22;34323;52.022;5.686;2022-09-01T16:28:52;35.10;65.70
48535;DHT22;34323;52.022;5.686;2022-09-01T16:31:23;34.90;65.10
48535;DHT22;34323;52.022;5.686;2022-09-01T16:33:52;34.80;64.90
48535;DHT22;34323;52.022;5.686;2022-09-01T16:42:50;35.00;64.90
48535;DHT22;34323;52.022;5.686;2022-09-01T16:45:37;35.30;65.50
48535;DHT22;34323;52.022;5.686;2022-09-01T16:56:28;35.00;65.10
48535;DHT22;34323;52.022;5.686;2022-09-01T16:59:20;34.50;64.90
48535;DHT22;34323;52.022;5.686;2022-09-01T17:04:27;33.50;66.70
48535;DHT22;34323;52.022;5.686;2022-09-01T17:09:59;32.60;66.00
48535;DHT22;34323;52.022;5.686;2022-09-01T17:13:18;32.40;67.50
48535;DHT22;34323;52.022;5.686;2022-09-01T17:15:54;32.20;68.00
48535;DHT22;34323;52.022;5.686;2022-09-01T17:18:31;32.30;68.10
48535;DHT22;34323;52.022;5.686;2022-09-01T17:23:59;32.10;68.50
48535;DHT22;34323;52.022;5.686;2022-09-01T17:26:30;31.90;67.90
48535;DHT22;34323;52.022;5.686;2022-09-01T17:29:02;31.80;68.10
48535;DHT22;34323;52.022;5.686;2022-09-01T17:34:34;31.50;68.60
48535;DHT22;34323;52.022;5.686;2022-09-01T17:37:30;31.80;69.20
48535;DHT22;34323;52.022;5.686;2022-09-01T17:40:18;32.00;68.70
48535;DHT22;34323;52.022;5.686;2022-09-01T17:45:39;31.60;69.60